Time;durP1;ratioP1;P1;durP2;ratioP2;P2;SDS_P1;SDS_P2;PMS_P1;PMS_P2;Temp;Humidity;BMP_temperature;BMP_pressure;BME280_temperature;BME280_humidity;BME280_pressure;Samples;Min_cycle;Max_cycle;Signal;HPM_P1;HPM_P2
2022/01/19 00:00:22;;;;;;;5.83;5.13;;;9.10;58.50;;;-142.21;91.58;112049.66;6278624;22;20463;-82
2022/01/19 00:02:49;;;;;;;5.30;4.33;;;9.10;58.60;;;-142.21;92.19;112049.66;6278607;22;20957;-82
2022/01/19 00:05:16;;;;;;;6.97;5.57;;;9.20;58.50;;;-142.21;92.33;112049.66;6277966;22;20391;-83
2022/01/19 00:07:43;;;;;;;7.37;5.73;;;9.20;58.40;;;-142.21;93.24;112049.66;6277773;22;20414;-81
2022/01/19 00:10:20;;;;;;;6.50;5.53;;;9.10;58.30;;;-142.21;92.88;112049.66;6278069;22;20411;-83
2022/01/19 00:12:47;;;;;;;6.70;5.47;;;9.10;58.40;;;-142.21;93.25;112049.66;6253265;22;20898;-82
2022/01/19 00:15:15;;;;;;;6.63;5.50;;;9.10;58.50;;;-142.21;93.17;112049.66;6278866;22;20418;-82
2022/01/19 00:17:43;;;;;;;6.33;5.10;;;9.10;58.60;;;-142.21;92.97;112049.66;6278542;22;20434;-82
2022/01/19 00:20:11;;;;;;;8.37;5.90;;;9.10;58.50;;;-142.21;93.28;112049.66;6278919;22;20489;-82
2022/01/19 00:22:39;;;;;;;7.30;5.17;;;9.20;58.60;;;-142.21;93.98;112049.66;6277975;22;20418;-83
2022/01/19 00:25:09;;;;;;;6.50;5.23;;;9.20;58.40;;;-142.21;92.85;112049.66;6278610;22;20414;-82
2022/01/19 00:27:36;;;;;;;7.60;5.10;;;9.30;58.30;;;-142.21;93.09;112049.66;6278520;22;20476;-81
2022/01/19 00:30:04;;;;;;;6.27;4.90;;;9.20;58.00;;;-142.21;92.09;112049.66;6277904;22;20449;-82
2022/01/19 00:32:33;;;;;;;6.30;5.13;;;9.20;58.00;;;-142.21;93.50;112049.66;6278149;22;20426;-82
2022/01/19 00:35:02;;;;;;;5.60;5.00;;;9.20;58.20;;;-142.21;93.09;112049.66;6278148;22;20746;-82
2022/01/19 00:37:29;;;;;;;5.73;5.10;;;9.20;58.20;;;-142.21;93.24;112049.66;6278431;22;20731;-82
2022/01/19 00:39:56;;;;;;;5.67;5.10;;;9.20;57.90;;;-142.21;93.05;112049.66;6278505;22;20472;-81
2022/01/19 00:42:24;;;;;;;5.87;5.23;;;9.20;58.10;;;-142.21;93.08;112049.66;6278047;22;20906;-81
2022/01/19 00:44:51;;;;;;;7.70;5.13;;;9.20;58.10;;;-142.21;92.85;112049.66;6277669;22;20744;-82
2022/01/19 00:47:25;;;;;;;6.50;4.80;;;9.00;57.90;;;-142.21;93.42;112049.66;6277479;22;20439;-82
2022/01/19 00:49:54;;;;;;;6.10;4.87;;;9.10;58.40;;;-142.21;94.12;112049.66;6277715;22;20411;-82
2022/01/19 00:52:23;;;;;;;6.33;5.07;;;9.20;58.40;;;-142.21;94.34;112049.66;6278319;22;20465;-82
2022/01/19 00:54:50;;;;;;;6.80;5.00;;;9.10;58.20;;;-142.21;94.26;112049.66;6278248;22;20720;-82
2022/01/19 00:57:17;;;;;;;6.47;4.77;;;9.10;58.10;;;-142.21;95.39;112049.66;6278697;22;20435;-82
2022/01/19 00:59:45;;;;;;;5.50;5.00;;;9.10;58.20;;;-142.21;94.85;112049.66;6278237;22;20504;-82
2022/01/19 01:02:13;;;;;;;6.37;4.77;;;9.20;58.20;;;-142.21;95.42;112049.66;6277841;22;20411;-81
2022/01/19 01:04:40;;;;;;;6.00;4.70;;;9.20;58.10;;;-142.21;95.71;112049.66;6277993;22;20433;-81
2022/01/19 01:07:14;;;;;;;7.33;5.40;;;9.10;58.10;;;-142.21;95.22;112049.66;6277238;22;20958;-81
2022/01/19 01:09:42;;;;;;;6.03;5.00;;;9.10;58.00;;;-142.21;95.96;112049.66;6277302;22;20478;-83
2022/01/19 01:12:23;;;;;;;5.37;4.83;;;9.10;58.10;;;-142.21;96.54;112049.66;6276862;22;20771;-81
2022/01/19 01:20:26;;;;;;;6.73;5.33;;;8.90;58.30;;;-142.21;96.63;112049.66;6293622;22;20370;-82
2022/01/19 01:22:53;;;;;;;9.67;5.23;;;8.80;58.20;;;-142.21;97.46;112049.66;6305883;22;20407;-83
2022/01/19 01:25:22;;;;;;;6.77;5.10;;;8.80;58.50;;;-142.21;97.78;112049.66;6293925;22;20415;-81
2022/01/19 01:27:56;;;;;;;5.80;4.63;;;8.80;58.50;;;-142.21;97.77;112049.66;6277800;22;20443;-81
2022/01/19 01:30:24;;;;;;;5.80;4.93;;;8.70;58.50;;;-142.21;97.82;112049.66;6277343;22;20451;-81
2022/01/19 01:32:57;;;;;;;6.80;5.30;;;8.70;58.60;;;-142.21;98.98;112049.66;6277228;22;20418;-81
2022/01/19 01:35:24;;;;;;;6.87;5.20;;;8.60;58.60;;;-142.21;99.34;112049.66;6278114;22;20414;-81
2022/01/19 01:37:52;;;;;;;7.00;5.13;;;8.60;58.80;;;-142.21;98.97;112049.66;6278282;22;20431;-82
2022/01/19 01:40:24;;;;;;;6.83;5.23;;;8.50;58.80;;;-142.21;99.61;112049.66;6277373;22;20450;-81
2022/01/19 01:42:52;;;;;;;6.17;5.27;;;8.50;59.00;;;-142.21;100.00;112049.66;6278214;22;20749;-80
2022/01/19 01:45:29;;;;;;;7.03;5.13;;;8.40;58.90;;;-142.21;100.00;112049.66;6277573;22;20431;-81
2022/01/19 01:48:07;;;;;;;7.10;5.40;;;8.40;59.10;;;-142.21;100.00;112049.66;6276977;22;20949;-80
2022/01/19 01:53:28;;;;;;;6.37;5.50;;;8.20;59.90;;;-142.21;100.00;112049.66;6278005;22;20467;-81
2022/01/19 01:56:05;;;;;;;6.40;5.37;;;8.10;59.30;;;-142.21;100.00;112049.66;6277573;22;20418;-81
2022/01/19 01:58:42;;;;;;;6.10;5.10;;;8.10;59.40;;;-142.21;100.00;112049.66;6277493;22;20788;-80
2022/01/19 02:01:11;;;;;;;8.23;5.27;;;8.00;59.40;;;-142.21;100.00;112049.66;6277032;22;20493;-81
2022/01/19 02:03:42;;;;;;;8.60;5.60;;;8.00;59.60;;;-142.21;100.00;112049.66;6276946;22;20431;-81
2022/01/19 02:06:31;;;;;;;6.33;5.70;;;7.90;59.60;;;-142.21;100.00;112049.66;6277024;22;20442;-81
2022/01/19 02:09:07;;;;;;;10.77;6.20;;;7.80;59.60;;;-142.21;100.00;112049.66;6274026;22;20418;-80
2022/01/19 02:23:26;;;;;;;5.20;4.30;;;7.50;60.50;;;-142.21;100.00;112049.66;6277624;22;20405;-80
2022/01/19 02:26:06;;;;;;;9.73;4.47;;;7.50;60.50;;;-142.21;100.00;112049.66;6276876;22;20901;-80
2022/01/19 02:42:27;;;;;;;10.32;7.70;;;6.90;62.20;;;-142.21;100.00;112049.66;6277422;22;20211;-81
2022/01/19 02:50:32;;;;;;;8.60;6.18;;;6.90;62.60;;;-142.21;100.00;112049.66;6277256;22;20452;-81
2022/01/19 02:53:01;;;;;;;8.20;6.57;;;6.80;62.70;;;-142.21;100.00;112049.66;6277199;22;20248;-81
2022/01/19 02:55:29;;;;;;;7.28;6.00;;;6.80;62.50;;;-142.21;100.00;112049.66;6276762;22;20907;-80
2022/01/19 02:57:57;;;;;;;7.35;5.65;;;6.80;63.20;;;-142.21;100.00;112049.66;6276481;22;20172;-80
2022/01/19 03:08:43;;;;;;;5.72;5.10;;;6.80;62.60;;;-142.21;100.00;112049.66;6152558;23;20405;-81
2022/01/19 03:09:21;;;;;;;7.18;5.57;;;6.90;63.10;;;-142.21;100.00;112049.66;6153983;23;20528;-80
2022/01/19 03:11:48;;;;;;;6.43;5.33;;;6.90;62.70;;;-142.21;100.00;112049.66;6129803;23;20175;-80
2022/01/19 03:14:17;;;;;;;6.93;5.28;;;6.80;62.30;;;-142.21;100.00;112049.66;6153814;23;20414;-80
2022/01/19 03:16:44;;;;;;;7.70;6.10;;;6.80;62.40;;;-142.21;100.00;112049.66;6153692;23;20175;-81
2022/01/19 03:19:18;;;;;;;7.18;5.45;;;6.80;62.40;;;-142.21;100.00;112049.66;6153977;23;20497;-81
2022/01/19 03:21:51;;;;;;;7.20;5.73;;;6.80;62.60;;;-142.21;100.00;112049.66;6153452;23;20179;-80
2022/01/19 03:24:19;;;;;;;8.40;6.07;;;6.80;62.70;;;-142.21;100.00;112049.66;6153864;23;20823;-80
2022/01/19 03:26:48;;;;;;;6.65;5.60;;;6.90;62.50;;;-142.21;100.00;112049.66;6154016;23;20259;-81
2022/01/19 03:29:16;;;;;;;7.50;5.67;;;6.90;62.40;;;-142.21;100.00;112049.66;6153058;23;20179;-80
2022/01/19 03:31:43;;;;;;;8.00;5.70;;;6.90;62.50;;;-142.21;100.00;112049.66;6153443;23;20442;-80
2022/01/19 03:34:12;;;;;;;6.90;5.53;;;6.90;62.70;;;-142.21;100.00;112049.66;6153951;23;20755;-80
2022/01/19 03:36:39;;;;;;;6.57;5.90;;;6.90;62.50;;;-142.21;100.00;112049.66;6154262;23;20183;-80
2022/01/19 03:39:07;;;;;;;7.57;5.78;;;6.80;62.70;;;-142.21;100.00;112049.66;6217683;22;20178;-80
2022/01/19 03:41:34;;;;;;;7.73;6.00;;;6.80;62.70;;;-142.21;100.00;112049.66;6276782;22;20176;-80
2022/01/19 03:44:10;;;;;;;6.40;5.70;;;6.90;63.30;;;-142.21;100.00;112049.66;6277128;22;20796;-80
2022/01/19 03:46:46;;;;;;;6.13;5.53;;;6.70;63.00;;;-142.21;100.00;112049.66;6275904;22;20192;-81
2022/01/19 03:49:23;;;;;;;6.43;5.80;;;6.70;63.20;;;-142.21;100.00;112049.66;6276059;22;20176;-81
2022/01/19 03:51:50;;;;;;;7.80;5.30;;;6.70;63.10;;;-142.21;100.00;112049.66;6276201;22;20415;-81
2022/01/19 03:54:23;;;;;;;6.07;5.20;;;6.60;63.50;;;-142.21;100.00;112049.66;6276088;22;20470;-80
2022/01/19 03:56:50;;;;;;;6.88;6.20;;;6.50;63.90;;;-142.21;100.00;112049.66;6277022;22;20232;-80
2022/01/19 03:59:19;;;;;;;7.10;5.90;;;6.40;64.10;;;-142.21;100.00;112049.66;6276760;22;20196;-80
2022/01/19 04:01:47;;;;;;;6.75;5.88;;;6.40;64.30;;;-142.21;100.00;112049.66;6276860;22;20621;-82
2022/01/19 04:04:32;;;;;;;9.43;6.37;;;6.50;64.20;;;-142.21;100.00;112049.66;6277180;22;20625;-82
2022/01/19 04:07:07;;;;;;;8.40;6.00;;;6.60;63.80;;;-142.21;100.00;112049.66;6277118;22;20461;-79
2022/01/19 04:09:37;;;;;;;6.75;5.45;;;6.60;63.60;;;-142.21;100.00;112049.66;6276596;22;20181;-81
2022/01/19 04:12:06;;;;;;;8.15;6.32;;;6.80;63.40;;;-142.21;100.00;112049.66;6277513;22;20180;-80
2022/01/19 04:14:42;;;;;;;6.97;5.90;;;6.80;63.20;;;-142.21;100.00;112049.66;6276327;22;20181;-80
2022/01/19 04:17:13;;;;;;;9.23;7.03;;;6.80;62.70;;;-142.21;100.00;112049.66;6277209;22;20175;-79
2022/01/19 04:19:44;;;;;;;6.90;6.20;;;6.80;62.60;;;-142.21;100.00;112049.66;6276352;22;20176;-80
2022/01/19 04:22:17;;;;;;;8.53;6.43;;;6.70;63.00;;;-142.21;100.00;112049.66;6277085;22;20415;-80
2022/01/19 04:24:45;;;;;;;11.00;7.63;;;6.80;62.80;;;-142.21;100.00;112049.66;6277207;22;20416;-80
2022/01/19 04:27:34;;;;;;;10.07;7.55;;;6.80;62.40;;;-142.21;100.00;112049.66;6278030;22;20196;-81
2022/01/19 04:30:11;;;;;;;9.40;7.20;;;6.80;62.50;;;-142.21;100.00;112049.66;6278939;22;20675;-81
2022/01/19 04:32:46;;;;;;;8.63;7.45;;;6.70;63.10;;;-142.21;100.00;112049.66;6278603;22;20438;-80
2022/01/19 04:35:18;;;;;;;9.00;7.77;;;6.60;63.20;;;-142.21;100.00;112049.66;6278688;22;20200;-81
2022/01/19 04:38:26;;;;;;;9.55;7.70;;;6.50;63.20;;;-142.21;100.00;112049.66;6278517;22;20469;-80
2022/01/19 04:44:10;;;;;;;11.93;7.95;;;6.60;63.30;;;-142.21;100.00;112049.66;6278384;22;20249;-80
2022/01/19 05:03:46;;;;;;;11.65;8.85;;;6.60;62.80;;;-142.21;100.00;112049.66;6185253;23;20177;-80
2022/01/19 05:06:17;;;;;;;10.43;8.38;;;6.60;62.80;;;-142.21;100.00;112049.66;6184715;23;20205;-80
2022/01/19 05:09:05;;;;;;;10.75;8.43;;;6.50;62.80;;;-142.21;100.00;112049.66;6183965;23;20638;-80
2022/01/19 05:14:18;;;;;;;10.45;8.00;;;6.50;62.40;;;-142.21;100.00;112049.66;6185678;23;20194;-79
2022/01/19 05:16:45;;;;;;;8.68;7.78;;;6.50;62.60;;;-142.21;100.00;112049.66;6185638;23;20183;-79
2022/01/19 05:19:14;;;;;;;11.20;8.50;;;6.50;62.40;;;-142.21;100.00;112049.66;6185542;23;20179;-79
2022/01/19 05:21:41;;;;;;;9.07;7.60;;;6.50;63.30;;;-142.21;100.00;112049.66;6185457;23;20198;-79
2022/01/19 05:24:08;;;;;;;9.85;8.43;;;6.50;62.40;;;-142.21;100.00;112049.66;6185361;23;20179;-79
2022/01/19 05:26:37;;;;;;;10.63;8.13;;;6.40;62.30;;;-142.21;100.00;112049.66;6185598;23;20233;-78
2022/01/19 05:29:10;;;;;;;9.70;8.55;;;6.50;62.50;;;-142.21;100.00;112049.66;6185298;23;20179;-79
2022/01/19 05:31:38;;;;;;;10.68;8.18;;;6.50;62.40;;;-142.21;100.00;112049.66;6184920;23;20253;-78
2022/01/19 05:34:05;;;;;;;10.90;8.25;;;6.40;62.50;;;-142.21;100.00;112049.66;6187348;22;20202;-79
2022/01/19 05:36:34;;;;;;;10.23;8.13;;;6.30;63.00;;;-142.21;100.00;112049.66;6278183;22;20632;-78
2022/01/19 05:39:04;;;;;;;10.25;8.02;;;6.20;63.20;;;-142.21;100.00;112049.66;6278294;22;20180;-79
2022/01/19 05:41:32;;;;;;;9.20;8.30;;;6.20;63.30;;;-142.21;100.00;112049.66;6278727;22;20544;-79
2022/01/19 05:44:06;;;;;;;11.57;9.10;;;6.20;63.50;;;-142.21;100.00;112049.66;6278099;22;20192;-78
2022/01/19 05:46:34;;;;;;;12.02;8.55;;;6.10;63.80;;;-142.21;100.00;112049.66;6278717;22;20531;-78
2022/01/19 05:49:02;;;;;;;10.20;7.75;;;6.10;63.80;;;-142.21;100.00;112049.66;6278872;22;20179;-79
2022/01/19 05:51:30;;;;;;;11.02;8.68;;;6.00;63.90;;;-142.21;100.00;112049.66;6280681;22;20179;-79
2022/01/19 05:53:59;;;;;;;11.82;8.40;;;6.10;63.90;;;-142.21;100.00;112049.66;6281300;22;20176;-82
2022/01/19 05:56:26;;;;;;;12.55;9.32;;;6.00;63.90;;;-142.21;100.00;112049.66;6303874;22;20160;-79
2022/01/19 05:58:54;;;;;;;11.07;8.57;;;6.00;63.80;;;-142.21;100.00;112049.66;6298808;22;20172;-79
2022/01/19 06:01:21;;;;;;;11.73;9.50;;;6.00;63.80;;;-142.21;100.00;112049.66;6280389;22;20194;-79
2022/01/19 06:03:50;;;;;;;10.30;8.20;;;5.90;63.60;;;-142.21;100.00;112049.66;6278012;22;20177;-79
2022/01/19 06:06:24;;;;;;;10.52;8.50;;;5.90;64.00;;;-142.21;100.00;112049.66;6277605;22;20173;-79
2022/01/19 06:09:01;;;;;;;11.55;8.30;;;5.80;64.60;;;-142.21;100.00;112049.66;6277426;22;20192;-79
2022/01/19 06:11:30;;;;;;;11.85;8.23;;;5.70;64.90;;;-142.21;100.00;112049.66;6277863;22;20168;-79
2022/01/19 06:13:57;;;;;;;10.60;8.73;;;5.60;66.00;;;-142.21;100.00;112049.66;6277395;22;20183;-79
2022/01/19 06:16:25;;;;;;;9.73;8.73;;;5.50;66.30;;;-142.21;100.00;112049.66;6277946;22;20196;-78
2022/01/19 06:18:55;;;;;;;11.23;8.77;;;5.50;66.10;;;-142.21;100.00;112049.66;6277973;22;20172;-78
2022/01/19 06:21:28;;;;;;;11.30;8.73;;;5.50;66.30;;;-142.21;100.00;112049.66;6277604;22;20157;-78
2022/01/19 06:23:55;;;;;;;10.32;8.75;;;5.50;66.60;;;-142.21;100.00;112049.66;6278022;22;20231;-78
2022/01/19 06:26:23;;;;;;;12.15;9.07;;;5.50;66.50;;;-142.21;100.00;112049.66;6277494;22;20196;-77
2022/01/19 06:28:53;;;;;;;10.55;8.65;;;5.50;67.00;;;-142.21;100.00;112049.66;6278160;22;20192;-78
2022/01/19 06:31:20;;;;;;;13.07;9.88;;;5.50;67.00;;;-142.21;100.00;112049.66;6277546;22;20204;-80
2022/01/19 06:33:47;;;;;;;14.75;9.88;;;5.50;66.70;;;-142.21;100.00;112049.66;6277359;22;20199;-80
2022/01/19 06:36:21;;;;;;;11.50;9.30;;;5.50;66.60;;;-142.21;100.00;112049.66;6277535;22;20176;-80
2022/01/19 06:38:54;;;;;;;12.82;10.10;;;5.40;67.20;;;-142.21;100.00;112049.66;6277341;22;20161;-80
2022/01/19 06:41:21;;;;;;;10.90;9.57;;;5.40;67.20;;;-142.21;100.00;112049.66;6277649;22;20183;-80
2022/01/19 06:43:49;;;;;;;9.95;8.77;;;5.40;67.00;;;-142.21;100.00;112049.66;6277528;22;20192;-79
2022/01/19 06:46:18;;;;;;;11.82;9.35;;;5.40;67.20;;;-142.21;100.00;112049.66;6277205;22;20644;-79
2022/01/19 06:48:45;;;;;;;12.73;9.25;;;5.40;67.30;;;-142.21;100.00;112049.66;6277324;22;20200;-77
2022/01/19 06:51:12;;;;;;;11.20;9.27;;;5.40;67.10;;;-142.21;100.00;112049.66;6277636;22;20199;-78
2022/01/19 06:53:40;;;;;;;11.38;9.40;;;5.30;67.30;;;-142.21;100.00;112049.66;6277644;22;20172;-78
2022/01/19 06:56:15;;;;;;;9.70;8.32;;;5.30;67.30;;;-142.21;100.00;112049.66;6277913;22;20176;-78
2022/01/19 06:58:49;;;;;;;13.15;8.88;;;5.40;67.40;;;-142.21;100.00;112049.66;6277227;22;20188;-77
2022/01/19 07:01:18;;;;;;;11.05;8.90;;;5.40;67.10;;;-142.21;100.00;112049.66;6276366;22;20173;-80
2022/01/19 07:03:45;;;;;;;13.13;9.57;;;5.40;66.70;;;-142.21;100.00;112049.66;6275979;22;20181;-80
2022/01/19 07:06:12;;;;;;;11.20;9.38;;;5.40;66.60;;;-142.21;100.00;112049.66;6275941;22;20176;-79
2022/01/19 07:08:40;;;;;;;10.18;8.65;;;5.40;66.60;;;-142.21;100.00;112049.66;6275824;22;20640;-78
2022/01/19 07:11:07;;;;;;;11.60;9.38;;;5.30;66.80;;;-142.21;100.00;112049.66;6275622;22;20203;-77
2022/01/19 07:13:35;;;;;;;12.18;10.15;;;5.30;66.90;;;-142.21;100.00;112049.66;6276326;22;20596;-77
2022/01/19 07:16:02;;;;;;;12.35;8.75;;;5.20;67.00;;;-142.21;100.00;112049.66;6275652;22;20172;-77
2022/01/19 07:18:31;;;;;;;11.00;9.00;;;5.20;67.30;;;-142.21;100.00;112049.66;6276891;22;20172;-79
2022/01/19 07:21:04;;;;;;;12.90;9.23;;;5.20;67.50;;;-142.21;100.00;112049.66;6275345;22;20173;-78
2022/01/19 07:23:32;;;;;;;10.50;9.50;;;5.20;67.20;;;-142.21;100.00;112049.66;6276897;22;20163;-78
2022/01/19 07:25:59;;;;;;;11.30;9.63;;;5.30;67.10;;;-142.21;100.00;112049.66;6276192;22;20199;-75
2022/01/19 07:28:29;;;;;;;10.23;8.35;;;5.30;66.90;;;-142.21;100.00;112049.66;6248997;22;20254;-77
2022/01/19 07:30:56;;;;;;;14.15;9.70;;;5.30;67.50;;;-142.21;100.00;112049.66;6275989;22;20204;-76
2022/01/19 07:33:23;;;;;;;10.63;9.05;;;5.30;66.90;;;-142.21;100.00;112049.66;6276136;22;20180;-78
2022/01/19 07:35:52;;;;;;;12.98;9.68;;;5.20;67.00;;;-142.21;100.00;112049.66;6276482;22;20176;-78
2022/01/19 07:38:20;;;;;;;11.38;8.77;;;5.20;67.10;;;-142.21;100.00;112049.66;6276147;22;20671;-78
2022/01/19 07:40:47;;;;;;;10.82;9.02;;;5.20;67.00;;;-142.21;100.00;112049.66;6249000;22;20175;-77
2022/01/19 07:43:16;;;;;;;10.85;9.20;;;5.20;67.00;;;-142.21;100.00;112049.66;6275908;22;20560;-76
2022/01/19 07:45:43;;;;;;;11.75;10.25;;;5.10;67.40;;;-142.21;100.00;112049.66;6276117;22;20218;-77
2022/01/19 07:48:17;;;;;;;12.30;9.43;;;5.10;67.70;;;-142.21;100.00;112049.66;6275120;22;20239;-80
2022/01/19 07:50:45;;;;;;;11.23;9.52;;;5.40;67.30;;;-142.21;100.00;112049.66;6276297;22;20679;-79
2022/01/19 07:53:14;;;;;;;21.15;14.05;;;5.70;65.70;;;-142.21;100.00;112049.66;6277007;22;20176;-79
2022/01/19 07:55:42;;;;;;;12.50;9.95;;;6.00;65.30;;;-142.21;100.00;112049.66;6276266;22;20256;-79
2022/01/19 07:58:13;;;;;;;12.32;10.00;;;7.20;61.80;;;-142.21;100.00;112049.66;6276284;22;20222;-79
2022/01/19 08:00:46;;;;;;;12.68;9.80;;;7.70;59.60;;;-142.21;100.00;112049.66;6277948;22;20196;-79
2022/01/19 08:03:14;;;;;;;12.30;10.57;;;7.70;59.70;;;-142.21;100.00;112049.66;6278040;22;20197;-79
2022/01/19 08:05:47;;;;;;;15.02;10.90;;;7.70;60.10;;;-142.21;100.00;112049.66;6277245;22;20738;-79
2022/01/19 08:08:16;;;;;;;12.32;10.75;;;7.90;59.30;;;-142.21;100.00;112049.66;6277764;22;20196;-80
2022/01/19 08:10:45;;;;;;;12.52;10.43;;;7.30;60.00;;;-142.21;100.00;112049.66;6277070;22;20176;-79
2022/01/19 08:13:14;;;;;;;12.15;10.20;;;6.70;61.90;;;-142.21;100.00;112049.66;6277893;22;20609;-79
2022/01/19 08:15:42;;;;;;;15.90;11.73;;;6.40;63.50;;;-142.21;100.00;112049.66;6276835;22;20668;-79
2022/01/19 08:18:10;;;;;;;12.10;10.05;;;6.20;64.60;;;-142.21;100.00;112049.66;6275580;22;20195;-79
2022/01/19 08:20:40;;;;;;;12.13;10.32;;;6.10;65.40;;;-142.21;100.00;112049.66;6277122;22;20183;-80
2022/01/19 08:23:07;;;;;;;12.05;9.60;;;6.20;65.60;;;-142.21;100.00;112049.66;6276832;22;20191;-78
2022/01/19 08:25:36;;;;;;;11.25;9.82;;;6.10;66.10;;;-142.21;100.00;112049.66;6276782;22;20184;-79
2022/01/19 08:28:05;;;;;;;12.57;9.88;;;6.00;66.40;;;-142.21;100.00;112049.66;6275750;22;20192;-79
2022/01/19 08:30:32;;;;;;;10.25;9.20;;;6.00;66.80;;;-142.21;100.00;112049.66;6276555;22;20208;-79
2022/01/19 08:33:00;;;;;;;9.82;8.82;;;6.60;66.40;;;-142.21;100.00;112049.66;6276276;22;20497;-78
2022/01/19 08:35:27;;;;;;;9.30;8.40;;;8.00;62.70;;;-142.21;100.00;112049.66;6276876;22;20613;-77
2022/01/19 08:37:55;;;;;;;9.90;8.50;;;9.30;60.00;;;-142.21;100.00;112049.66;6276696;22;20781;-78
2022/01/19 08:40:27;;;;;;;11.33;9.67;;;9.50;57.90;;;-142.21;100.00;112049.66;6276874;22;20714;-78
2022/01/19 08:42:57;;;;;;;11.27;9.90;;;9.40;57.90;;;-142.21;100.00;112049.66;6277104;22;20383;-77
2022/01/19 08:45:26;;;;;;;11.33;9.53;;;9.50;57.60;;;-142.21;100.00;112049.66;6276440;22;20880;-77
2022/01/19 08:47:54;;;;;;;10.47;9.37;;;9.80;57.60;;;-142.21;100.00;112049.66;6276337;22;20442;-78
2022/01/19 08:50:23;;;;;;;10.70;8.97;;;10.80;55.40;;;-142.21;100.00;112049.66;6276215;22;20410;-78
2022/01/19 08:52:51;;;;;;;11.73;10.53;;;11.20;53.40;;;-142.21;100.00;112049.66;6276802;22;20395;-76
2022/01/19 08:55:19;;;;;;;12.30;10.50;;;11.00;53.20;;;-142.21;100.00;112049.66;6276142;22;20415;-76
2022/01/19 08:57:47;;;;;;;13.33;11.10;;;10.40;53.80;;;-142.21;100.00;112049.66;6276596;22;20806;-77
2022/01/19 09:00:19;;;;;;;12.50;11.20;;;9.70;55.90;;;-142.21;100.00;112049.66;6276232;22;20994;-77
2022/01/19 09:02:47;;;;;;;11.47;10.13;;;9.50;57.40;;;-142.21;100.00;112049.66;6276149;22;20418;-76
2022/01/19 09:05:15;;;;;;;11.90;10.63;;;10.00;55.70;;;-142.21;100.00;112049.66;6276293;22;20399;-78
2022/01/19 09:07:44;;;;;;;11.53;10.33;;;10.10;54.80;;;-142.21;100.00;112049.66;6276382;22;20411;-78
2022/01/19 09:10:14;;;;;;;13.63;10.63;;;9.60;56.00;;;-142.21;100.00;112049.66;6276168;22;20415;-78
2022/01/19 09:12:43;;;;;;;13.97;10.17;;;9.20;56.70;;;-142.21;100.00;112049.66;6276466;22;20880;-78
2022/01/19 09:15:15;;;;;;;13.50;10.50;;;8.80;57.80;;;-142.21;100.00;112049.66;6276531;22;20458;-77
2022/01/19 09:17:44;;;;;;;10.93;9.33;;;8.80;58.30;;;-142.21;100.00;112049.66;6275630;22;20491;-78
2022/01/19 09:20:14;;;;;;;12.30;9.83;;;9.10;58.00;;;-142.21;100.00;112049.66;6275002;22;20411;-78
2022/01/19 09:22:42;;;;;;;10.50;9.40;;;9.50;56.50;;;-142.21;100.00;112049.66;6275880;22;20376;-78
2022/01/19 09:25:12;;;;;;;11.23;9.67;;;9.40;56.80;;;-142.21;100.00;112049.66;6276638;22;20450;-77
2022/01/19 09:27:40;;;;;;;13.10;10.03;;;9.30;57.30;;;-142.21;100.00;112049.66;6249479;22;20404;-78
2022/01/19 09:30:13;;;;;;;13.03;9.80;;;9.50;56.30;;;-142.21;100.00;112049.66;6276267;22;20531;-77
2022/01/19 09:32:40;;;;;;;12.77;9.43;;;9.90;56.40;;;-142.21;98.80;112049.66;6275844;22;20426;-78
2022/01/19 09:35:10;;;;;;;10.27;9.00;;;10.30;54.40;;;-142.21;96.47;112049.66;6276588;22;20422;-78
2022/01/19 09:37:40;;;;;;;11.77;9.87;;;10.70;54.00;;;-142.21;97.92;112049.66;6276953;22;20464;-78
2022/01/19 09:40:09;;;;;;;10.23;9.13;;;11.20;52.60;;;-142.21;96.10;112049.66;6276323;22;20438;-76
2022/01/19 09:42:36;;;;;;;11.27;9.37;;;11.00;52.20;;;-142.21;94.39;112049.66;6276542;22;20469;-79
2022/01/19 09:45:05;;;;;;;9.43;8.47;;;11.20;53.10;;;-142.21;89.10;112049.66;6275370;22;20944;-77
2022/01/19 09:47:35;;;;;;;9.73;8.70;;;12.20;51.60;;;-142.21;87.84;112049.66;6276739;22;20415;-78
2022/01/19 09:50:04;;;;;;;11.50;9.67;;;11.80;50.40;;;-142.21;86.71;112049.66;6276128;22;20496;-78
2022/01/19 09:52:33;;;;;;;11.43;8.77;;;12.10;50.70;;;-142.21;83.84;112049.66;6249568;22;20407;-79
2022/01/19 09:55:01;;;;;;;10.37;9.37;;;12.40;50.30;;;-142.21;80.63;112049.66;6275914;22;20399;-79
2022/01/19 09:57:28;;;;;;;10.47;8.77;;;12.70;49.90;;;-142.21;78.08;112049.66;6276238;22;20411;-79
2022/01/19 09:59:55;;;;;;;11.57;8.63;;;13.40;48.10;;;-142.21;73.29;112049.66;6248952;22;20484;-79
2022/01/19 10:02:23;;;;;;;8.73;7.93;;;14.40;47.00;;;-142.21;69.07;112049.66;6274754;22;20410;-78
2022/01/19 10:04:51;;;;;;;9.10;8.27;;;15.00;45.10;;;-142.21;74.64;112049.66;6276018;22;20418;-79
2022/01/19 10:07:24;;;;;;;9.50;8.60;;;14.90;45.50;;;-142.21;76.75;112049.66;6275508;22;20391;-77
2022/01/19 10:10:00;;;;;;;10.37;8.87;;;15.00;45.40;;;-142.21;70.52;112049.66;6249207;22;20439;-78
2022/01/19 10:18:14;;;;;;;11.80;9.17;;;15.40;44.40;;;-142.21;58.91;112049.66;6276181;22;20378;-78
2022/01/19 10:20:44;;;;;;;11.30;9.27;;;15.80;44.20;;;-142.21;54.26;112049.66;6276721;22;20372;-78
2022/01/19 10:23:37;;;;;;;12.23;8.93;;;16.60;44.00;;;-142.21;52.69;112049.66;6275909;22;20749;-79
2022/01/19 10:26:09;;;;;;;10.47;9.10;;;18.00;40.40;;;-142.21;51.87;112049.66;6276610;22;20411;-78
2022/01/19 10:29:01;;;;;;;9.97;8.97;;;17.50;38.70;;;-142.21;50.39;112049.66;6275870;22;20435;-77
2022/01/19 10:31:31;;;;;;;9.70;8.80;;;18.50;39.20;;;-142.21;48.88;112049.66;6256896;22;20449;-79
2022/01/19 10:34:17;;;;;;;10.17;9.13;;;19.30;38.80;;;-142.21;46.42;112049.66;6294072;22;20391;-79
2022/01/19 10:36:47;;;;;;;10.17;9.17;;;20.50;36.80;;;-142.21;46.74;112049.66;6280553;22;20230;-78
2022/01/19 10:39:15;;;;;;;9.27;8.47;;;21.00;36.20;;;-142.21;46.64;112049.66;6276107;22;20163;-79
2022/01/19 10:42:10;;;;;;;8.73;7.83;;;21.10;34.90;;;-142.21;44.70;112049.66;6275257;22;20500;-77
2022/01/19 10:44:39;;;;;;;12.20;8.80;;;22.10;34.20;;;-142.21;43.19;112049.66;6275368;22;20640;-78
2022/01/19 10:47:09;;;;;;;9.80;8.77;;;22.70;35.10;;;-142.21;43.40;112049.66;6276117;22;20176;-79
2022/01/19 10:49:52;;;;;;;9.20;8.30;;;22.60;34.20;;;-142.21;44.93;112049.66;6275939;22;20242;-79
2022/01/19 10:52:31;;;;;;;10.20;9.20;;;21.50;33.40;;;-142.21;50.17;112049.66;6276059;22;20172;-79
2022/01/19 10:54:59;;;;;;;11.07;10.07;;;19.00;35.20;;;-142.21;60.09;112049.66;6275258;22;20210;-79
2022/01/19 10:57:32;;;;;;;10.63;9.53;;;17.00;37.70;;;-142.21;69.96;112049.66;6275604;22;20439;-80
2022/01/19 11:00:24;;;;;;;11.10;9.63;;;15.30;40.40;;;-142.21;67.30;112049.66;6275509;22;20431;-79
2022/01/19 11:02:55;;;;;;;9.87;8.97;;;15.30;41.60;;;-142.21;56.27;112049.66;6275083;22;20414;-81
2022/01/19 11:05:44;;;;;;;10.53;9.33;;;17.10;40.60;;;-142.21;51.68;112049.66;6275912;22;20410;-78
2022/01/19 11:08:13;;;;;;;10.17;9.17;;;18.50;38.30;;;-142.21;53.02;112049.66;6249001;22;20435;-82
2022/01/19 11:10:47;;;;;;;10.63;9.63;;;19.00;37.60;;;-142.21;54.10;112049.66;6275774;22;20899;-79
2022/01/19 11:13:18;;;;;;;9.70;8.73;;;18.60;37.80;;;-142.21;51.94;112049.66;6274940;22;20376;-78
2022/01/19 11:15:45;;;;;;;10.40;9.50;;;18.50;39.10;;;-142.21;48.28;112049.66;6248576;22;20184;-80
2022/01/19 11:18:13;;;;;;;10.30;9.30;;;19.60;37.80;;;-142.21;47.32;112049.66;6274760;22;20183;-79
2022/01/19 11:20:48;;;;;;;9.97;8.97;;;20.30;36.80;;;-142.21;48.52;112049.66;6275393;22;20179;-80
2022/01/19 11:23:30;;;;;;;12.03;10.13;;;19.70;36.90;;;-142.21;49.75;112049.66;6274680;22;20168;-79